| time (UTC) | temp F | wind direction | speed MPH | gust MPH | rain 1hr in | rain 24hr in | rain mn in | humidity % | barometer mb |
| 20260510201556 | 75 | 25 | 15.0 | 21.0 | 0.00 | 0.00 | 0.00 | 54 | 1015.5 |
| 20260510200052 | 75 | 32 | 11.0 | 20.0 | 0.00 | 0.00 | 0.00 | 56 | 1015.6 |
| 20260510194555 | 76 | 27 | 14.0 | 19.0 | 0.00 | 0.00 | 0.00 | 56 | 1015.6 |
| 20260510193056 | 76 | 23 | 14.0 | 18.0 | 0.00 | 0.00 | 0.00 | 56 | 1015.5 |
| 20260510191554 | 78 | 30 | 7.0 | 16.0 | 0.00 | 0.00 | 0.00 | 57 | 1015.5 |
| 20260510190100 | 77 | 53 | 4.0 | 13.0 | 0.00 | 0.00 | 0.00 | 59 | 1015.5 |
| 20260510184551 | 78 | 84 | 3.0 | 14.0 | 0.00 | 0.00 | 0.00 | 58 | 1015.5 |
| 20260510183049 | 76 | 42 | 8.0 | 12.0 | 0.00 | 0.00 | 0.00 | 59 | 1015.4 |
| 20260510181547 | 76 | 22 | 5.0 | 12.0 | 0.00 | 0.00 | 0.00 | 57 | 1015.3 |
| 20260510180100 | 76 | 349 | 9.0 | 15.0 | 0.00 | 0.00 | 0.00 | 57 | 1015.3 |
| 20260510174543 | 76 | 34 | 10.0 | 15.0 | 0.00 | 0.00 | 0.00 | 58 | 1015.4 |
| 20260510173048 | 76 | 20 | 5.0 | 13.0 | 0.00 | 0.00 | 0.00 | 60 | 1015.5 |
| 20260510171543 | 75 | 5 | 9.0 | 13.0 | 0.00 | 0.00 | 0.00 | 59 | 1015.7 |
| 20260510170038 | 75 | 23 | 5.0 | 12.0 | 0.00 | 0.00 | 0.00 | 61 | 1015.8 |
| 20260510164541 | 74 | 360 | 5.0 | 14.0 | 0.00 | 0.00 | 0.00 | 61 | 1015.8 |
| 20260510163048 | 74 | 13 | 7.0 | 12.0 | 0.00 | 0.00 | 0.00 | 60 | 1015.9 |
| 20260510161536 | 73 | 9 | 6.0 | 11.0 | 0.00 | 0.00 | 0.00 | 59 | 1015.8 |
| 20260510160031 | 73 | 49 | 4.0 | 10.0 | 0.00 | 0.00 | 0.00 | 60 | 1015.7 |
| 20260510154531 | 72 | 23 | 3.0 | 12.0 | 0.00 | 0.00 | 0.00 | 60 | 1015.5 |
| 20260510153028 | 71 | 16 | 5.0 | 12.0 | 0.00 | 0.00 | 0.00 | 63 | 1015.5 |
| 20260510151531 | 71 | 22 | 9.0 | 13.0 | 0.00 | 0.00 | 0.00 | 65 | 1015.4 |
| 20260510150035 | 70 | 17 | 10.0 | 15.0 | 0.00 | 0.00 | 0.00 | 66 | 1015.1 |
| 20260510144529 | 71 | 5 | 11.0 | 16.0 | 0.00 | 0.00 | 0.00 | 65 | 1014.9 |
| 20260510143033 | 74 | 299 | 5.0 | 13.0 | 0.00 | 0.00 | 0.00 | 57 | 1014.9 |
| 20260510141520 | 73 | 167 | 0.0 | 0.0 | 0.00 | 0.00 | 0.00 | 65 | 1014.8 |
| 20260510140015 | 71 | 159 | 1.0 | 5.0 | 0.00 | 0.00 | 0.00 | 69 | 1014.5 |
| 20260510134513 | 70 | 155 | 0.0 | 0.0 | 0.00 | 0.00 | 0.00 | 69 | 1014.4 |
| 20260510133011 | 70 | 194 | 0.0 | 6.0 | 0.00 | 0.00 | 0.00 | 65 | 1014.3 |
| 20260510131521 | 68 | 201 | 2.0 | 6.0 | 0.00 | 0.00 | 0.00 | 68 | 1014.3 |
| 20260510130009 | 66 | 201 | 0.0 | 6.0 | 0.00 | 0.00 | 0.00 | 72 | 1014.4 |
| 20260510124513 | 65 | 158 | 0.0 | 0.0 | 0.00 | 0.00 | 0.00 | 78 | 1014.4 |
| 20260510123006 | 64 | 157 | 0.0 | 5.0 | 0.00 | 0.00 | 0.00 | 79 | 1014.4 |
| 20260510121507 | 63 | 156 | 0.0 | 0.0 | 0.00 | 0.00 | 0.00 | 80 | 1014.2 |
| 20260510120002 | 62 | 157 | 0.0 | 5.0 | 0.00 | 0.00 | 0.00 | 80 | 1014.0 |
| 20260510114501 | 61 | 154 | 0.0 | 3.0 | 0.00 | 0.00 | 0.00 | 79 | 1013.7 |
| 20260510113059 | 62 | 154 | 0.0 | 0.0 | 0.00 | 0.00 | 0.00 | 78 | 1013.5 |
| 20260510111556 | 62 | 154 | 0.0 | 1.0 | 0.00 | 0.00 | 0.00 | 75 | 1013.2 |
| 20260510110053 | 62 | 165 | 5.0 | 9.0 | 0.00 | 0.00 | 0.00 | 76 | 1012.8 |
| 20260510104553 | 61 | 133 | 3.0 | 4.0 | 0.00 | 0.00 | 0.00 | 75 | 1012.8 |
| 20260510103050 | 61 | 98 | 0.0 | 2.0 | 0.00 | 0.00 | 0.00 | 74 | 1012.6 |
| 20260510101548 | 61 | 98 | 0.0 | 2.0 | 0.00 | 0.00 | 0.00 | 72 | 1012.7 |
| 20260510100107 | 62 | 30 | 0.0 | 0.0 | 0.00 | 0.00 | 0.00 | 70 | 1012.8 |
| 20260510094558 | 61 | 29 | 0.0 | 0.0 | 0.00 | 0.00 | 0.00 | 72 | 1012.7 |
| 20260510093045 | 61 | 29 | 0.0 | 3.0 | 0.00 | 0.00 | 0.00 | 71 | 1012.8 |
| 20260510091542 | 62 | 26 | 0.0 | 11.0 | 0.00 | 0.00 | 0.00 | 70 | 1012.6 |
| 20260510090046 | 63 | 9 | 14.0 | 18.0 | 0.00 | 0.00 | 0.00 | 69 | 1012.5 |
| 20260510084536 | 64 | 189 | 0.0 | 0.0 | 0.00 | 0.00 | 0.00 | 62 | 1011.8 |
| 20260510083031 | 65 | 189 | 0.0 | 3.0 | 0.00 | 0.00 | 0.00 | 60 | 1011.5 |
| 20260510081542 | 66 | 189 | 3.0 | 5.0 | 0.00 | 0.00 | 0.00 | 59 | 1011.4 |
| 20260510080033 | 66 | 198 | 4.0 | 6.0 | 0.00 | 0.00 | 0.00 | 59 | 1011.3 |
| 20260510074525 | 67 | 206 | 5.0 | 9.0 | 0.00 | 0.00 | 0.00 | 58 | 1011.1 |
| 20260510073023 | 67 | 182 | 5.0 | 8.0 | 0.00 | 0.00 | 0.00 | 57 | 1011.1 |
| 20260510071523 | 67 | 199 | 4.0 | 7.0 | 0.00 | 0.00 | 0.00 | 56 | 1011.2 |
| 20260510070028 | 67 | 186 | 6.0 | 8.0 | 0.00 | 0.00 | 0.00 | 55 | 1011.2 |
| 20260510064520 | 67 | 200 | 4.0 | 7.0 | 0.00 | 0.00 | 0.00 | 55 | 1011.4 |
| 20260510063018 | 67 | 213 | 5.0 | 7.0 | 0.00 | 0.00 | 0.00 | 54 | 1011.4 |
| 20260510061516 | 67 | 213 | 4.0 | 6.0 | 0.00 | 0.00 | 0.00 | 54 | 1011.2 |
| 20260510060014 | 67 | 171 | 1.0 | 4.0 | 0.00 | 0.00 | 0.00 | 56 | 1011.1 |
| 20260510054513 | 67 | 170 | 0.0 | 3.0 | 0.00 | 0.00 | 0.00 | 57 | 1011.1 |
| 20260510053010 | 67 | 170 | 0.0 | 0.0 | 0.00 | 0.00 | 0.00 | 59 | 1011.0 |
| 20260510051507 | 68 | 170 | 0.0 | 0.0 | 0.00 | 0.00 | 0.00 | 58 | 1010.9 |
| 20260510050007 | 69 | 170 | 0.0 | 4.0 | 0.00 | 0.00 | 0.00 | 54 | 1010.8 |
| 20260510044502 | 69 | 171 | 2.0 | 6.0 | 0.00 | 0.00 | 0.00 | 53 | 1010.7 |
| 20260510043003 | 69 | 169 | 1.0 | 9.0 | 0.00 | 0.00 | 0.00 | 52 | 1010.6 |
| 20260510041601 | 69 | 167 | 5.0 | 8.0 | 0.00 | 0.00 | 0.00 | 51 | 1010.7 |
| 20260510040103 | 70 | 182 | 4.0 | 8.0 | 0.00 | 0.00 | 0.00 | 51 | 1010.6 |
| 20260510034601 | 69 | 174 | 4.0 | 8.0 | 0.00 | 0.00 | 0.00 | 52 | 1010.6 |
| 20260510033137 | 70 | 169 | 5.0 | 7.0 | 0.00 | 0.00 | 0.00 | 50 | 1010.7 |
| 20260510031622 | 70 | 172 | 3.0 | 6.0 | 0.00 | 0.00 | 0.00 | 50 | 1010.7 |
| 20260510024554 | 71 | 171 | 4.0 | 6.0 | 0.00 | 0.00 | 0.00 | 47 | 1010.4 |
| 20260510023052 | 72 | 170 | 2.0 | 5.0 | 0.00 | 0.00 | 0.00 | 46 | 1010.3 |
| 20260510021552 | 72 | 172 | 4.0 | 8.0 | 0.00 | 0.00 | 0.00 | 46 | 1010.2 |
| 20260510020052 | 72 | 175 | 2.0 | 4.0 | 0.00 | 0.00 | 0.00 | 48 | 1010.1 |
| 20260510014550 | 73 | 178 | 0.0 | 5.0 | 0.00 | 0.00 | 0.00 | 45 | 1009.9 |
| 20260510013049 | 74 | 184 | 1.0 | 6.0 | 0.00 | 0.00 | 0.00 | 43 | 1009.7 |
| 20260510011548 | 75 | 199 | 3.0 | 6.0 | 0.00 | 0.00 | 0.00 | 41 | 1009.5 |
| 20260510010048 | 76 | 194 | 3.0 | 6.0 | 0.00 | 0.00 | 0.00 | 41 | 1009.3 |
| 20260510004547 | 77 | 202 | 0.0 | 3.0 | 0.00 | 0.00 | 0.00 | 41 | 1009.2 |
| 20260510003046 | 78 | 213 | 4.0 | 7.0 | 0.00 | 0.00 | 0.00 | 39 | 1009.0 |
| 20260510001546 | 79 | 220 | 4.0 | 7.0 | 0.00 | 0.00 | 0.00 | 38 | 1008.9 |
| 20260509234555 | 80 | 188 | 3.0 | 7.0 | 0.00 | 0.00 | 0.00 | 35 | 1008.6 |
| 20260509233047 | 80 | 221 | 3.0 | 7.0 | 0.00 | 0.00 | 0.00 | 35 | 1008.5 |
| 20260509231544 | 81 | 202 | 5.0 | 8.0 | 0.00 | 0.00 | 0.00 | 35 | 1008.6 |
| 20260509230041 | 81 | 169 | 6.0 | 10.0 | 0.00 | 0.00 | 0.00 | 34 | 1008.6 |
| 20260509224540 | 81 | 221 | 4.0 | 12.0 | 0.00 | 0.00 | 0.00 | 32 | 1008.7 |
| 20260509223042 | 81 | 257 | 8.0 | 13.0 | 0.00 | 0.00 | 0.00 | 34 | 1008.7 |
| 20260509221543 | 81 | 257 | 10.0 | 13.0 | 0.00 | 0.00 | 0.00 | 34 | 1008.7 |
| 20260509220037 | 81 | 215 | 5.0 | 9.0 | 0.00 | 0.00 | 0.00 | 34 | 1008.5 |
| 20260509214535 | 81 | 166 | 6.0 | 10.0 | 0.00 | 0.00 | 0.00 | 35 | 1008.5 |
| 20260509213038 | 81 | 163 | 2.0 | 9.0 | 0.00 | 0.00 | 0.00 | 36 | 1008.4 |
| 20260509211534 | 81 | 171 | 4.0 | 11.0 | 0.00 | 0.00 | 0.00 | 36 | 1008.4 |
| 20260509210039 | 81 | 219 | 0.0 | 9.0 | 0.00 | 0.00 | 0.00 | 38 | 1008.5 |
| 20260509204535 | 80 | 113 | 2.0 | 9.0 | 0.00 | 0.00 | 0.00 | 38 | 1008.5 |
| 20260509203029 | 80 | 190 | 4.0 | 9.0 | 0.00 | 0.00 | 0.00 | 39 | 1008.6 |